Rockford, IA (50468)

6:16 AM CDT on August 25, 2016 (GMT -0500)
IEM | | Change Station
Active Advisory: Flood Warning Active Notice: Record Report

Elev 1151 ft 42.98 °N, 93.10 °W | Updated 27 minutes ago

Mostly Cloudy
Mostly Cloudy
59 °F
Feels Like 59 °F
N
0
Wind Variable Wind from North
Gusts 0.0 mph

Today
High -- | Low -- °F
--% Chance of Precip.
Yesterday
High -- | Low -- °F
Precip. -- in
Pressure 30.06 in
Visibility 10.0 miles
Clouds Mostly Cloudy 13000 ft
Dew Point 52 °F
Humidity 77%
Rainfall in
Snow Depth Not available.
6:29 AM 7:57 PM
Waning Gibbous, 46% visible
METAR KCCY 251115Z AUTO 32005KT 10SM BKN130 17/17 A3006 RMK AO2
Pressure 30.06 in
Visibility 10.0 miles
Clouds Mostly Cloudy 13000 ft
Dew Point 52 °F
Humidity 77%
Rainfall in
Snow Depth Not available.
6:29 AM 7:57 PM
Waning Gibbous, 46% visible
METAR KCCY 251115Z AUTO 32005KT 10SM BKN130 17/17 A3006 RMK AO2

10-Day Weather Forecast

Almanac

Astronomy

Aug. 25, 2016 Rise Set
Actual Time
Civil Twilight
Nautical Twilight
Astronomical Twilight
Moon
Length of Visible Light
Length of Day
Tomorrow will be .
, % of the Moon is Illuminated

Today's Extremes

State Highs State Lows

Community

WunderPhotos

Upload Photos

1,934,822 photos uploaded!

WunderBlog® & News

Nearby

Air Quality

  Air Quality AQ Index Pollutant
Not available.

Snow Depth

Station Depth Elevation

Earthquake Activity

City Distance Mag. Time & Date
Minimum magnitude displayed is 2.5.

Coastal Water Temperatures

Place Temperature

Stations

Nearby Weather Stations

Station Location Temp. Windchill Dew Point Humidity Wind Precip. Elev Updated Type
                   

Watches & Warnings

Flood Warning
Issued: 3:20 AM CDT Aug. 25, 2016 – National Weather Service

The Flood Warning continues for
the Cedar River at Charles City.
* Until Friday morning... or until the warning is cancelled.
* At 2:30 am Thursday the stage was 12.8 feet.
* Flood stage is 12.0 feet.
* Minor flooding is occurring and minor flooding is forecast.
* Forecast... the river will continue rising to near 13.4 feet this
morning. The river will fall below flood stage today.
* Impact... at 12.0 feet... barricading of streets begins, and the
intersection of Riverside and Illinois streets may be flooded.


Lat... Lon 4321 9286 4321 9273 4301 9255 4293 9255 4304 9273